Time;durP1;ratioP1;P1;durP2;ratioP2;P2;SDS_P1;SDS_P2;PMS_P1;PMS_P2;Temp;Humidity;BMP_temperature;BMP_pressure;BME280_temperature;BME280_humidity;BME280_pressure;Samples;Min_cycle;Max_cycle;Signal;HPM_P1;HPM_P2
2021/05/13 00:02:07;;;;;;;2.33;1.55;;;;;;;14.17;53.81;100495.32;1709350;83;27995;-57
2021/05/13 00:04:34;;;;;;;3.35;1.70;;;;;;;14.15;53.64;100495.16;1709256;83;25694;-57
2021/05/13 00:07:01;;;;;;;1.98;1.60;;;;;;;14.12;53.96;100496.86;1709361;83;25654;-57
2021/05/13 00:09:29;;;;;;;4.05;1.40;;;;;;;14.08;53.96;100482.30;1716832;83;26346;-58
2021/05/13 00:11:57;;;;;;;1.77;1.35;;;;;;;14.08;54.59;100482.30;1709671;83;25623;-57
2021/05/13 00:14:24;;;;;;;19.67;2.20;;;;;;;14.04;55.12;100477.39;1778808;80;27270;-58
2021/05/13 00:16:51;;;;;;;7.30;2.15;;;;;;;13.96;56.11;100483.62;1776435;80;25528;-57
2021/05/13 00:19:18;;;;;;;8.75;2.42;;;;;;;13.89;56.97;100482.10;1772391;80;25294;-57
2021/05/13 00:21:45;;;;;;;9.05;2.35;;;;;;;13.85;57.06;100482.59;1769642;81;25565;-58
2021/05/13 00:24:14;;;;;;;4.10;2.62;;;;;;;13.83;57.31;100488.16;1769724;80;25699;-57
2021/05/13 00:26:45;;;;;;;4.42;2.00;;;;;;;13.85;57.78;100495.59;1775238;79;27389;-58
2021/05/13 00:29:15;;;;;;;4.22;2.40;;;;;;;13.86;57.63;100496.43;1765797;81;25779;-58
2021/05/13 00:31:44;;;;;;;3.80;1.67;;;;;;;13.89;58.06;100494.27;1770658;80;25562;-58
2021/05/13 00:34:11;;;;;;;2.67;2.15;;;;;;;13.96;58.18;100496.30;1774714;80;25606;-58
2021/05/13 00:36:39;;;;;;;5.58;2.02;;;;;;;13.99;58.38;100501.36;1739116;81;25689;-58
2021/05/13 00:39:09;;;;;;;7.53;2.12;;;;;;;14.01;58.62;100494.80;1769678;80;27432;-58
2021/05/13 00:41:38;;;;;;;2.87;1.95;;;;;;;14.00;58.76;100494.95;1772635;80;25623;-58
2021/05/13 00:44:07;;;;;;;4.33;2.02;;;;;;;14.00;58.37;100493.59;1778851;80;26274;-58
2021/05/13 00:46:35;;;;;;;7.95;2.17;;;;;;;14.03;58.57;100492.75;1778905;80;25649;-57
2021/05/13 00:49:10;;;;;;;7.33;2.40;;;;;;;14.05;58.60;100492.09;1778905;80;25713;-57
2021/05/13 00:51:36;;;;;;;5.85;2.00;;;;;;;14.04;58.46;100494.45;1750291;80;27321;-57
2021/05/13 00:54:04;;;;;;;3.42;2.05;;;;;;;14.04;58.94;100491.75;1747658;82;25817;-57
2021/05/13 00:56:32;;;;;;;3.87;2.10;;;;;;;14.10;58.77;100487.53;1747996;81;25602;-57
2021/05/13 00:59:10;;;;;;;4.37;2.05;;;;;;;14.14;58.80;100494.81;1743777;80;25547;-57
2021/05/13 01:04:19;;;;;;;4.87;2.05;;;;;;;13.99;58.33;100491.90;1740183;82;27416;-57
2021/05/13 01:06:48;;;;;;;4.78;2.50;;;;;;;13.91;58.54;100492.75;1741643;81;25585;-57
2021/05/13 01:09:24;;;;;;;5.17;1.85;;;;;;;13.83;58.89;100493.56;1742662;80;25648;-57
2021/05/13 01:11:59;;;;;;;9.30;2.55;;;;;;;13.77;59.28;100491.52;1763267;80;25646;-57
2021/05/13 01:14:29;;;;;;;6.40;2.92;;;;;;;13.69;59.36;100479.33;1758338;81;25619;-57
2021/05/13 01:19:42;;;;;;;7.90;2.98;;;;;;;13.58;60.04;100473.73;1760576;80;26157;-57
2021/05/13 01:22:12;;;;;;;7.97;2.83;;;;;;;13.51;59.82;100469.47;1739724;82;25320;-58
2021/05/13 01:24:40;;;;;;;5.58;2.77;;;;;;;13.48;60.03;100469.78;1740289;81;25600;-58
2021/05/13 01:27:07;;;;;;;7.90;2.98;;;;;;;13.40;60.60;100452.20;1748834;81;25750;-58
2021/05/13 01:29:36;;;;;;;4.12;2.55;;;;;;;13.33;61.30;100459.23;1759579;81;28139;-57
2021/05/13 01:32:04;;;;;;;5.25;3.15;;;;;;;13.28;61.68;100447.03;1759324;81;25561;-58
2021/05/13 01:34:31;;;;;;;3.45;2.70;;;;;;;13.26;60.96;100448.22;1684624;85;25562;-57
2021/05/13 01:36:58;;;;;;;4.80;2.55;;;;;;;13.25;61.41;100446.52;1761842;80;25676;-58
2021/05/13 01:39:25;;;;;;;8.88;3.00;;;;;;;13.24;61.52;100446.17;1702095;84;25602;-56
2021/05/13 01:41:52;;;;;;;5.92;2.70;;;;;;;13.23;61.10;100445.34;1676005;84;27469;-56
2021/05/13 01:44:19;;;;;;;4.42;2.90;;;;;;;13.23;61.65;100445.83;1704066;84;25618;-57
2021/05/13 01:46:46;;;;;;;5.35;3.02;;;;;;;13.19;62.08;100435.85;1704042;84;25592;-56
2021/05/13 01:49:21;;;;;;;4.22;2.50;;;;;;;13.14;61.79;100444.44;1664924;84;25592;-57
2021/05/13 01:51:49;;;;;;;6.53;2.85;;;;;;;13.11;62.29;100440.73;1678419;85;25612;-57
2021/05/13 01:54:17;;;;;;;8.43;3.08;;;;;;;13.10;62.41;100439.03;1757890;81;27393;-57
2021/05/13 01:56:45;;;;;;;9.15;3.02;;;;;;;13.08;62.86;100431.59;1698900;84;25567;-57
2021/05/13 01:59:12;;;;;;;7.03;2.98;;;;;;;13.04;62.18;100426.67;1703218;84;25688;-57
2021/05/13 02:01:39;;;;;;;11.85;2.70;;;;;;;12.99;62.38;100420.41;1706787;83;25494;-56
2021/05/13 02:04:06;;;;;;;3.50;2.52;;;;;;;12.92;62.28;100418.01;1706751;83;25759;-57
2021/05/13 02:06:33;;;;;;;6.65;2.85;;;;;;;12.90;62.52;100422.71;1772021;80;27999;-57
2021/05/13 02:09:00;;;;;;;5.03;3.27;;;;;;;12.84;62.98;100425.06;1772640;80;25670;-57
2021/05/13 02:11:27;;;;;;;5.12;3.77;;;;;;;12.78;62.41;100427.02;1771207;80;25634;-57
2021/05/13 02:13:53;;;;;;;5.15;2.87;;;;;;;12.77;62.92;100422.66;1769175;80;25575;-57
2021/05/13 02:16:20;;;;;;;9.70;4.00;;;;;;;12.74;63.07;100420.27;1747985;82;25589;-57
2021/05/13 02:18:47;;;;;;;4.90;2.85;;;;;;;12.74;63.15;100425.66;1748233;81;27420;-56
2021/05/13 02:21:14;;;;;;;6.50;3.42;;;;;;;12.71;64.28;100417.05;1748169;82;25587;-57
2021/05/13 02:23:42;;;;;;;5.30;3.20;;;;;;;12.65;63.98;100412.61;1748220;81;25627;-57
2021/05/13 02:26:09;;;;;;;4.03;3.00;;;;;;;12.63;64.18;100407.89;1747883;81;25657;-57
2021/05/13 02:28:36;;;;;;;10.58;2.95;;;;;;;12.58;64.13;100403.97;1748257;82;25813;-57
2021/05/13 02:31:03;;;;;;;4.47;2.45;;;;;;;12.52;64.67;100407.63;1748079;82;28038;-56
2021/05/13 02:33:30;;;;;;;5.53;3.00;;;;;;;12.51;64.28;100408.63;1747944;82;25620;-57
2021/05/13 02:35:56;;;;;;;3.98;2.17;;;;;;;12.49;64.50;100406.62;1751524;80;25672;-56
2021/05/13 02:38:23;;;;;;;7.60;2.42;;;;;;;12.49;64.69;100405.27;1774472;80;26115;-56
2021/05/13 02:40:50;;;;;;;12.60;2.77;;;;;;;12.50;64.19;100400.70;1778636;80;25765;-57
2021/05/13 02:43:17;;;;;;;6.05;2.80;;;;;;;12.51;64.00;100403.75;1754586;80;28062;-56
2021/05/13 02:45:44;;;;;;;7.03;2.50;;;;;;;12.52;64.11;100398.70;1747795;82;25624;-56
2021/05/13 02:48:11;;;;;;;5.85;2.70;;;;;;;12.51;63.61;100395.14;1716208;82;25577;-56
2021/05/13 02:50:38;;;;;;;7.53;2.75;;;;;;;12.50;63.77;100390.78;1773282;79;25590;-56
2021/05/13 02:53:05;;;;;;;6.30;2.80;;;;;;;12.44;63.96;100388.69;1769792;81;25695;-56
2021/05/13 02:55:32;;;;;;;2.95;2.40;;;;;;;12.39;63.59;100392.38;1769674;81;27447;-56
2021/05/13 02:58:00;;;;;;;5.25;2.90;;;;;;;12.34;63.44;100389.28;1769714;81;25639;-56
2021/05/13 03:00:29;;;;;;;7.45;3.15;;;;;;;12.30;63.62;100394.67;1770343;80;25652;-56
2021/05/13 03:02:57;;;;;;;3.55;2.42;;;;;;;12.26;64.21;100392.79;1758386;80;25627;-56
2021/05/13 03:05:27;;;;;;;4.75;2.77;;;;;;;12.21;64.17;100386.52;1748101;82;25700;-57
2021/05/13 03:08:00;;;;;;;8.65;2.83;;;;;;;12.21;64.11;100391.91;1748005;82;28653;-56
2021/05/13 03:10:42;;;;;;;3.50;2.35;;;;;;;12.20;64.18;100388.86;1747646;82;25755;-56
2021/05/13 03:13:04;;;;;;;4.70;2.45;;;;;;;12.27;64.82;100389.58;1746575;82;25715;-57
2021/05/13 03:15:31;;;;;;;6.72;2.30;;;;;;;12.29;64.26;100391.11;1748160;82;25557;-57
2021/05/13 03:17:58;;;;;;;6.08;2.40;;;;;;;12.31;64.01;100384.23;1748030;82;25706;-56
2021/05/13 03:20:33;;;;;;;6.30;2.45;;;;;;;12.39;63.82;100385.63;1748089;80;27278;-57
2021/05/13 03:22:57;;;;;;;4.70;2.37;;;;;;;12.43;63.63;100382.95;1746798;82;25624;-57
2021/05/13 03:25:32;;;;;;;6.03;2.67;;;;;;;12.44;63.29;100387.34;1748009;82;25655;-58
2021/05/13 03:28:06;;;;;;;10.98;2.12;;;;;;;12.39;63.09;100382.94;1765893;80;26089;-57
2021/05/13 03:30:25;;;;;;;6.37;2.55;;;;;;;12.35;63.06;100378.36;1763833;81;25554;-57
2021/05/13 03:32:52;;;;;;;3.45;2.05;;;;;;;12.33;62.59;100374.97;1766141;81;27364;-57
2021/05/13 03:35:20;;;;;;;4.55;2.17;;;;;;;12.32;62.26;100377.83;1766113;81;25637;-57
2021/05/13 03:37:47;;;;;;;4.62;2.52;;;;;;;12.29;62.17;100372.74;1767578;80;25572;-57
2021/05/13 03:40:15;;;;;;;8.40;2.20;;;;;;;12.25;61.86;100362.77;1778930;80;25583;-57
2021/05/13 03:42:42;;;;;;;5.83;2.10;;;;;;;12.25;61.49;100365.47;1778794;80;25725;-57
2021/05/13 03:45:10;;;;;;;7.83;2.10;;;;;;;12.27;61.20;100362.61;1778855;80;27413;-57
2021/05/13 03:47:37;;;;;;;8.68;2.98;;;;;;;12.26;60.62;100353.69;1778720;80;25536;-57
2021/05/13 03:50:06;;;;;;;7.83;2.00;;;;;;;12.29;60.37;100353.34;1767798;80;25572;-57
2021/05/13 03:52:33;;;;;;;15.30;2.52;;;;;;;12.35;59.75;100359.97;1748177;82;25626;-57
2021/05/13 03:55:00;;;;;;;6.00;1.95;;;;;;;12.39;59.44;100359.14;1748066;82;25583;-58
2021/05/13 03:57:27;;;;;;;4.37;1.82;;;;;;;12.42;59.17;100368.28;1718718;82;27397;-57
2021/05/13 03:59:57;;;;;;;8.45;2.20;;;;;;;12.45;59.08;100367.97;1747826;82;25762;-58
2021/05/13 04:02:34;;;;;;;8.88;2.00;;;;;;;12.44;59.10;100366.28;1747863;82;25561;-57
2021/05/13 04:04:57;;;;;;;6.53;2.22;;;;;;;12.44;59.21;100360.36;1746633;82;25603;-57
2021/05/13 04:07:33;;;;;;;7.10;2.50;;;;;;;12.43;59.32;100351.92;1748077;82;25622;-57
2021/05/13 04:10:04;;;;;;;78.72;5.53;;;;;;;12.41;59.56;100360.70;1747725;82;28134;-56
2021/05/13 04:12:32;;;;;;;8.95;2.27;;;;;;;12.43;59.62;100354.63;1748204;82;25571;-56
2021/05/13 04:14:59;;;;;;;7.87;2.27;;;;;;;12.46;59.66;100350.78;1748238;82;25792;-57
2021/05/13 04:17:27;;;;;;;7.25;3.47;;;;;;;12.48;59.48;100347.41;1748220;82;26058;-57
2021/05/13 04:19:54;;;;;;;6.15;1.98;;;;;;;12.50;59.46;100338.66;1748163;82;25602;-58
2021/05/13 04:22:21;;;;;;;11.68;2.08;;;;;;;12.55;59.38;100344.92;1748081;82;27411;-56
2021/05/13 04:24:47;;;;;;;10.23;3.00;;;;;;;12.60;58.99;100337.17;1748230;80;25528;-57
2021/05/13 04:27:15;;;;;;;8.60;2.20;;;;;;;12.64;58.68;100333.17;1764020;80;25706;-58
2021/05/13 04:29:41;;;;;;;9.98;2.50;;;;;;;12.67;58.46;100327.46;1779040;80;26120;-57
2021/05/13 04:32:08;;;;;;;9.35;2.08;;;;;;;12.72;58.33;100329.67;1779210;80;25575;-57
2021/05/13 04:34:35;;;;;;;15.48;2.50;;;;;;;12.76;58.18;100326.49;1778784;80;28019;-57
2021/05/13 04:37:02;;;;;;;15.10;2.58;;;;;;;12.80;57.93;100325.66;1761084;80;26246;-56
2021/05/13 04:39:29;;;;;;;11.03;2.22;;;;;;;12.86;57.91;100318.26;1769087;80;25761;-57
2021/05/13 04:41:55;;;;;;;9.30;3.98;;;;;;;12.89;57.40;100322.00;1772967;80;25434;-57
2021/05/13 04:44:22;;;;;;;8.35;2.00;;;;;;;12.91;57.21;100314.55;1773189;80;25509;-56
2021/05/13 04:46:57;;;;;;;17.70;2.20;;;;;;;12.93;57.24;100313.06;1772931;80;27417;-57
2021/05/13 04:49:18;;;;;;;4.58;2.20;;;;;;;12.95;57.13;100307.00;1768818;80;25631;-57
2021/05/13 04:51:46;;;;;;;13.78;2.33;;;;;;;12.99;57.28;100317.31;1766246;80;25607;-57
2021/05/13 04:54:16;;;;;;;4.03;2.50;;;;;;;13.08;57.09;100320.04;1765940;81;26071;-57
2021/05/13 04:56:42;;;;;;;8.45;2.58;;;;;;;13.15;56.97;100318.37;1766194;81;25765;-57
2021/05/13 04:59:10;;;;;;;6.70;3.20;;;;;;;13.18;56.58;100317.19;1766057;81;27859;-57
2021/05/13 05:01:38;;;;;;;7.05;2.08;;;;;;;13.18;56.75;100314.48;1766014;81;25398;-57
2021/05/13 05:04:06;;;;;;;5.80;2.05;;;;;;;13.19;56.55;100310.78;1766199;81;25484;-57
2021/05/13 05:06:33;;;;;;;7.87;2.27;;;;;;;13.19;56.25;100314.83;1766059;81;25566;-57
2021/05/13 05:09:00;;;;;;;8.68;2.17;;;;;;;13.19;56.32;100310.78;1766299;81;25526;-57
2021/05/13 05:11:27;;;;;;;5.55;2.27;;;;;;;13.22;56.18;100312.64;1766094;81;27797;-56
2021/05/13 05:13:54;;;;;;;6.50;2.00;;;;;;;13.24;56.09;100308.42;1766144;81;25634;-57
2021/05/13 05:16:21;;;;;;;15.53;3.00;;;;;;;13.24;55.98;100296.27;1766209;81;25544;-56
2021/05/13 05:18:48;;;;;;;4.50;2.10;;;;;;;13.33;56.03;100302.02;1765999;80;25651;-56
2021/05/13 05:21:14;;;;;;;13.80;2.27;;;;;;;13.49;55.54;100303.11;1765671;81;25551;-57
2021/05/13 05:23:41;;;;;;;10.18;2.05;;;;;;;13.57;55.25;100297.72;1766033;81;27464;-57
2021/05/13 05:26:09;;;;;;;8.00;1.95;;;;;;;13.66;55.16;100298.06;1767808;79;25650;-56
2021/05/13 05:28:36;;;;;;;17.23;2.12;;;;;;;13.75;54.58;100293.00;1797707;79;26022;-57
2021/05/13 05:31:03;;;;;;;9.10;2.20;;;;;;;13.84;54.23;100292.48;1797629;79;25579;-57
2021/05/13 05:33:30;;;;;;;11.70;2.20;;;;;;;13.93;53.96;100292.81;1727074;83;25525;-56
2021/05/13 05:35:56;;;;;;;11.63;2.27;;;;;;;14.05;53.54;100293.30;1794366;79;27394;-57
2021/05/13 05:38:23;;;;;;;9.30;2.17;;;;;;;14.13;52.96;100292.45;1771836;80;25639;-57
2021/05/13 05:40:50;;;;;;;12.15;1.95;;;;;;;14.22;53.17;100289.22;1773040;80;25711;-56
2021/05/13 05:43:17;;;;;;;4.10;1.80;;;;;;;14.32;52.75;100284.98;1772877;80;26182;-58
2021/05/13 05:45:44;;;;;;;11.73;2.02;;;;;;;14.46;52.15;100285.61;1772897;80;25722;-57
2021/05/13 05:48:11;;;;;;;3.45;1.75;;;;;;;14.61;51.83;100289.80;1772409;80;27476;-57
2021/05/13 05:50:41;;;;;;;10.43;2.40;;;;;;;14.75;51.79;100287.42;1774465;79;25548;-56
2021/05/13 05:53:09;;;;;;;11.93;2.45;;;;;;;14.88;51.68;100293.11;1778993;80;25646;-57
2021/05/13 05:55:39;;;;;;;9.73;2.15;;;;;;;15.06;50.67;100290.12;1778815;80;26184;-56
2021/05/13 05:58:07;;;;;;;12.93;2.00;;;;;;;15.15;50.83;100293.65;1778627;80;25638;-57
2021/05/13 06:00:35;;;;;;;12.90;1.80;;;;;;;15.24;50.44;100291.75;1774892;80;27388;-59
2021/05/13 06:03:05;;;;;;;10.35;1.60;;;;;;;15.35;50.25;100289.96;1770259;81;25639;-60
2021/05/13 06:05:32;;;;;;;6.58;1.45;;;;;;;15.42;49.65;100284.15;1748526;81;25643;-60
2021/05/13 06:08:00;;;;;;;34.13;3.37;;;;;;;15.49;47.38;100284.28;1770225;81;25607;-61
2021/05/13 06:10:27;;;;;;;5.05;1.32;;;;;;;15.52;47.33;100280.36;1770445;80;25568;-59
2021/05/13 06:12:56;;;;;;;3.70;1.70;;;;;;;15.63;48.03;100286.22;1748973;81;27939;-59
2021/05/13 06:15:25;;;;;;;3.58;1.30;;;;;;;15.76;48.30;100288.81;1770377;81;25397;-58
2021/05/13 06:17:53;;;;;;;12.88;2.90;;;;;;;15.91;47.88;100292.44;1771033;81;25526;-58
2021/05/13 06:20:27;;;;;;;16.90;2.00;;;;;;;16.02;47.27;100303.39;1770700;81;25557;-58
2021/05/13 06:22:55;;;;;;;4.67;1.17;;;;;;;16.09;45.24;100310.28;1770305;81;25709;-56
2021/05/13 06:25:23;;;;;;;6.70;1.42;;;;;;;16.05;44.80;100307.06;1759212;81;27435;-56
2021/05/13 06:27:51;;;;;;;9.78;1.15;;;;;;;16.04;45.15;100304.55;1761388;80;25613;-56
2021/05/13 06:30:20;;;;;;;9.05;1.52;;;;;;;16.06;45.01;100306.05;1763220;79;25655;-57
2021/05/13 06:32:48;;;;;;;10.38;1.47;;;;;;;16.09;45.03;100302.14;1768052;79;26163;-57
2021/05/13 06:35:18;;;;;;;4.03;1.52;;;;;;;16.15;45.27;100301.89;1756543;80;25794;-58
2021/05/13 06:37:46;;;;;;;5.47;1.50;;;;;;;16.26;44.79;100310.95;1752641;81;27491;-57
2021/05/13 06:40:14;;;;;;;11.88;1.52;;;;;;;16.30;44.67;100299.20;1738012;81;25804;-58
2021/05/13 06:42:43;;;;;;;3.08;1.37;;;;;;;16.30;44.95;100307.34;1762252;81;25703;-57
2021/05/13 06:45:13;;;;;;;3.00;1.20;;;;;;;16.40;44.86;100309.28;1764285;79;25510;-58
2021/05/13 06:47:42;;;;;;;8.00;1.47;;;;;;;16.45;45.07;100305.48;1712886;82;25803;-57
2021/05/13 06:50:10;;;;;;;6.37;1.57;;;;;;;16.52;45.00;100308.30;1712145;82;27568;-57
2021/05/13 06:52:38;;;;;;;15.18;1.70;;;;;;;16.57;44.74;100301.28;1700644;82;25621;-57
2021/05/13 06:55:07;;;;;;;3.75;1.00;;;;;;;16.64;44.86;100297.31;1710972;82;25589;-57
2021/05/13 06:57:34;;;;;;;9.53;1.25;;;;;;;16.78;45.01;100294.27;1695272;82;26023;-57
2021/05/13 07:00:01;;;;;;;7.08;1.30;;;;;;;16.93;44.85;100302.43;1689616;84;25602;-57
2021/05/13 07:02:27;;;;;;;10.95;1.27;;;;;;;17.08;43.86;100296.94;1672862;84;29579;-57
2021/05/13 07:04:54;;;;;;;6.58;1.37;;;;;;;17.09;43.81;100304.06;1689434;83;25672;-57
2021/05/13 07:07:22;;;;;;;12.18;1.77;;;;;;;17.17;44.19;100289.00;1698253;83;25548;-58
2021/05/13 07:09:49;;;;;;;12.35;1.37;;;;;;;17.27;44.02;100296.01;1703207;82;25708;-57
2021/05/13 07:12:16;;;;;;;7.45;1.90;;;;;;;17.32;43.57;100297.13;1708784;83;25700;-57
2021/05/13 07:14:42;;;;;;;8.20;1.40;;;;;;;17.30;43.84;100292.91;1720764;81;27408;-57
2021/05/13 07:17:09;;;;;;;11.12;2.27;;;;;;;17.34;44.09;100299.14;1743636;82;27184;-57
2021/05/13 07:19:36;;;;;;;2.20;1.10;;;;;;;17.34;43.86;100296.95;1743907;82;25716;-57
2021/05/13 07:22:03;;;;;;;13.00;1.70;;;;;;;17.31;44.08;100291.36;1744282;82;27609;-57
2021/05/13 07:24:30;;;;;;;7.97;1.90;;;;;;;17.36;43.67;100291.64;1735311;80;26476;-57
2021/05/13 07:26:56;;;;;;;10.95;1.42;;;;;;;17.32;43.75;100293.58;1745221;81;27420;-57
2021/05/13 07:29:23;;;;;;;6.78;2.17;;;;;;;17.34;44.08;100294.23;1743592;82;25589;-57
2021/05/13 07:31:50;;;;;;;7.28;1.30;;;;;;;17.38;44.25;100292.80;1739855;82;25647;-57
2021/05/13 07:34:17;;;;;;;15.48;1.60;;;;;;;17.41;44.10;100289.70;1744023;82;25498;-57
2021/05/13 07:36:45;;;;;;;8.58;1.62;;;;;;;17.43;44.01;100299.02;1738400;82;25526;-57
2021/05/13 07:39:13;;;;;;;10.40;1.57;;;;;;;17.38;44.14;100292.80;1744865;82;27461;-57
2021/05/13 07:41:40;;;;;;;3.92;1.40;;;;;;;17.38;44.27;100291.97;1744999;82;25524;-57
2021/05/13 07:44:07;;;;;;;17.67;1.92;;;;;;;17.38;44.27;100294.16;1745437;82;25643;-57
2021/05/13 07:46:38;;;;;;;17.45;1.70;;;;;;;17.34;44.33;100292.88;1741469;82;25549;-57
2021/05/13 07:49:04;;;;;;;7.37;1.57;;;;;;;17.29;44.45;100283.08;1743362;81;25767;-57
2021/05/13 07:51:33;;;;;;;17.00;1.77;;;;;;;17.35;44.81;100289.95;1744138;81;26888;-57
2021/05/13 07:54:00;;;;;;;11.50;1.50;;;;;;;17.41;44.59;100277.47;1745595;82;25625;-57
2021/05/13 07:56:27;;;;;;;13.65;1.47;;;;;;;17.50;44.54;100274.94;1748154;82;25535;-57
2021/05/13 07:58:54;;;;;;;10.05;1.45;;;;;;;17.59;44.05;100266.66;1743456;82;26081;-57
2021/05/13 08:01:21;;;;;;;16.82;3.20;;;;;;;17.67;43.98;100265.98;1753979;81;25742;-57
2021/05/13 08:03:48;;;;;;;11.20;2.33;;;;;;;17.77;44.03;100267.03;1767884;81;27413;-57
2021/05/13 08:06:14;;;;;;;16.67;1.80;;;;;;;17.92;44.34;100262.01;1767889;81;25620;-57
2021/05/13 08:08:41;;;;;;;9.75;1.50;;;;;;;18.05;43.70;100266.74;1692095;84;25664;-57
2021/05/13 08:11:08;;;;;;;13.95;1.77;;;;;;;18.14;43.38;100273.72;1775092;80;26091;-57
2021/05/13 08:13:35;;;;;;;9.08;2.10;;;;;;;18.21;43.45;100269.69;1769414;80;25670;-58
2021/05/13 08:16:03;;;;;;;6.45;1.42;;;;;;;18.31;43.49;100270.18;1768893;80;27382;-56
2021/05/13 08:18:30;;;;;;;11.83;1.35;;;;;;;18.36;43.15;100271.77;1767817;80;25622;-57
2021/05/13 08:20:57;;;;;;;35.10;2.45;;;;;;;18.35;42.96;100276.06;1770528;80;25638;-57
2021/05/13 08:23:24;;;;;;;13.75;1.40;;;;;;;18.32;43.27;100271.87;1765841;80;25701;-57
2021/05/13 08:25:51;;;;;;;10.48;1.57;;;;;;;18.33;43.37;100278.14;1768738;80;25686;-57
2021/05/13 08:28:17;;;;;;;7.50;1.30;;;;;;;18.45;43.51;100280.10;1773217;79;27425;-57
2021/05/13 08:30:44;;;;;;;12.23;1.40;;;;;;;18.56;43.28;100273.78;1729607;82;25775;-57
2021/05/13 08:33:11;;;;;;;4.97;1.57;;;;;;;18.70;43.26;100280.97;1719724;83;25618;-57
2021/05/13 08:35:37;;;;;;;9.83;2.08;;;;;;;18.82;43.05;100277.17;1699010;83;25609;-57
2021/05/13 08:38:05;;;;;;;7.03;1.30;;;;;;;18.99;43.06;100278.20;1767152;80;25626;-58
2021/05/13 08:40:33;;;;;;;8.25;1.42;;;;;;;19.13;43.06;100271.74;1766812;80;27411;-57
2021/05/13 08:43:01;;;;;;;4.12;1.25;;;;;;;19.27;42.71;100276.71;1769481;80;25771;-57
2021/05/13 08:45:31;;;;;;;9.95;1.80;;;;;;;19.42;42.72;100273.81;1745348;82;25653;-57
2021/05/13 08:47:58;;;;;;;9.95;1.32;;;;;;;19.59;42.33;100276.14;1765246;80;26149;-57
2021/05/13 08:50:27;;;;;;;11.43;1.67;;;;;;;19.71;42.05;100267.66;1736991;82;25696;-58
2021/05/13 08:52:56;;;;;;;5.70;1.90;;;;;;;19.80;41.86;100271.88;1770574;79;27385;-58
2021/05/13 08:55:23;;;;;;;11.03;1.65;;;;;;;19.87;41.61;100263.69;1764281;79;25649;-57
2021/05/13 08:57:50;;;;;;;4.95;1.60;;;;;;;19.87;41.86;100267.78;1772530;80;25691;-57
2021/05/13 09:00:18;;;;;;;17.12;2.42;;;;;;;19.83;41.60;100270.61;1772109;80;25656;-57
2021/05/13 09:02:51;;;;;;;9.73;1.70;;;;;;;19.87;42.16;100274.61;1763327;80;25659;-57
2021/05/13 09:05:19;;;;;;;9.55;1.40;;;;;;;19.92;41.62;100273.47;1772950;80;26837;-56
2021/05/13 09:07:46;;;;;;;11.45;1.17;;;;;;;19.90;41.59;100270.11;1765761;80;25564;-57
2021/05/13 09:10:16;;;;;;;14.58;1.77;;;;;;;19.97;41.58;100276.40;1753775;80;25673;-56
2021/05/13 09:12:50;;;;;;;5.67;1.57;;;;;;;20.00;41.55;100276.50;1763435;81;25627;-57
2021/05/13 09:15:24;;;;;;;8.18;1.57;;;;;;;19.96;41.75;100277.98;1770437;80;25706;-57
2021/05/13 09:17:59;;;;;;;9.40;1.52;;;;;;;20.01;41.77;100272.21;1748121;80;27387;-57
2021/05/13 09:20:31;;;;;;;17.02;2.37;;;;;;;20.11;41.50;100275.04;1745935;82;25549;-58
2021/05/13 09:23:20;;;;;;;21.65;2.27;;;;;;;20.33;41.23;100286.56;1746571;80;25719;-57
2021/05/13 09:26:12;;;;;;;15.15;1.87;;;;;;;20.62;40.76;100289.33;1745382;82;25718;-58
2021/05/13 09:28:42;;;;;;;8.98;1.82;;;;;;;20.71;40.58;100279.52;1740415;80;25580;-57
2021/05/13 09:31:29;;;;;;;15.23;2.42;;;;;;;20.64;40.66;100279.03;1739072;82;27413;-57
2021/05/13 09:34:08;;;;;;;13.03;2.72;;;;;;;20.56;41.18;100276.53;1772998;80;25541;-57
2021/05/13 09:36:37;;;;;;;7.97;1.70;;;;;;;20.38;41.31;100286.75;1728876;82;26360;-57
2021/05/13 09:39:24;;;;;;;8.35;2.25;;;;;;;20.17;41.72;100279.64;1767074;81;25936;-57
2021/05/13 09:42:06;;;;;;;12.88;2.00;;;;;;;19.92;42.10;100279.44;1765364;80;25647;-57
2021/05/13 09:44:39;;;;;;;7.50;1.77;;;;;;;19.69;42.83;100291.59;1773725;80;27466;-57
2021/05/13 09:47:28;;;;;;;9.43;2.25;;;;;;;19.45;43.47;100299.33;1779200;80;25749;-57
2021/05/13 09:50:19;;;;;;;;;;;;;;;;;;;;;
2021/05/13 09:52:52;;;;;;;7.25;1.45;;;;;;;19.26;44.13;100280.48;1768317;81;26253;-57
2021/05/13 09:55:29;;;;;;;5.10;1.50;;;;;;;19.24;44.27;100275.75;1768808;81;25755;-58
2021/05/13 09:58:00;;;;;;;12.07;1.67;;;;;;;19.35;44.52;100283.88;1768643;81;27087;-57
2021/05/13 10:00:42;;;;;;;8.78;2.58;;;;;;;19.32;44.44;100285.64;1768188;80;25603;-57
2021/05/13 10:03:13;;;;;;;2.87;1.40;;;;;;;19.31;44.65;100289.41;1763952;80;25590;-57
2021/05/13 10:05:44;;;;;;;3.83;1.40;;;;;;;19.28;44.58;100292.53;1695854;84;25690;-57
2021/05/13 10:08:12;;;;;;;5.22;1.50;;;;;;;19.29;44.77;100288.27;1695758;84;25948;-57
2021/05/13 10:10:40;;;;;;;6.10;1.87;;;;;;;19.48;44.88;100289.88;1695962;84;27392;-57
2021/05/13 10:13:09;;;;;;;6.45;1.50;;;;;;;19.66;44.79;100291.48;1695674;84;25676;-58
2021/05/13 10:15:39;;;;;;;22.40;1.92;;;;;;;19.66;44.60;100292.85;1699254;83;25407;-57
2021/05/13 10:18:21;;;;;;;17.52;2.70;;;;;;;19.59;45.24;100295.24;1698385;83;25679;-58
2021/05/13 10:21:04;;;;;;;5.92;1.30;;;;;;;19.52;45.24;100303.41;1679271;85;25563;-59
2021/05/13 10:23:36;;;;;;;12.75;1.65;;;;;;;19.53;45.52;100301.86;1704489;83;28518;-58
2021/05/13 10:26:04;;;;;;;7.95;1.70;;;;;;;19.63;45.52;100308.27;1739803;80;25676;-58
2021/05/13 10:28:33;;;;;;;6.58;2.25;;;;;;;19.69;45.57;100308.78;1780026;80;25643;-57
2021/05/13 10:31:06;;;;;;;9.58;2.20;;;;;;;19.81;45.73;100309.55;1701378;82;26020;-58
2021/05/13 10:33:48;;;;;;;4.37;2.10;;;;;;;19.86;45.85;100305.17;1759849;80;25811;-58
2021/05/13 10:36:22;;;;;;;5.08;1.45;;;;;;;19.90;46.14;100308.86;1745920;81;25852;-58
2021/05/13 10:39:07;;;;;;;8.60;1.20;;;;;;;19.66;46.88;100315.19;1708639;82;25652;-57
2021/05/13 10:41:44;;;;;;;4.33;1.50;;;;;;;19.38;48.38;100322.48;1729361;82;25651;-60
2021/05/13 10:44:17;;;;;;;5.62;1.60;;;;;;;19.08;49.46;100321.42;1709011;82;26079;-59
2021/05/13 10:46:55;;;;;;;4.58;1.50;;;;;;;18.85;49.82;100316.26;1727735;82;25571;-57
2021/05/13 10:49:25;;;;;;;10.63;2.05;;;;;;;18.71;51.19;100312.63;1729481;81;27396;-58
2021/05/13 10:51:57;;;;;;;3.35;1.57;;;;;;;18.59;51.36;100315.08;1770659;80;25565;-58
2021/05/13 10:54:33;;;;;;;5.30;1.80;;;;;;;18.45;51.70;100312.78;1770603;81;25612;-57
2021/05/13 10:57:20;;;;;;;3.58;1.98;;;;;;;18.36;52.73;100318.06;1766848;80;25547;-58
2021/05/13 11:00:10;;;;;;;11.40;3.30;;;;;;;18.27;52.77;100321.48;1719820;82;25720;-58
2021/05/13 11:02:45;;;;;;;5.90;1.90;;;;;;;18.20;53.26;100324.64;1768724;80;27901;-57
2021/05/13 11:05:38;;;;;;;6.42;1.60;;;;;;;18.15;52.81;100325.77;1766936;80;25616;-57
2021/05/13 11:08:14;;;;;;;9.00;1.85;;;;;;;18.20;52.61;100323.81;1767020;80;25622;-58
2021/05/13 11:11:00;;;;;;;6.55;2.05;;;;;;;18.52;52.18;100318.78;1765486;80;26748;-57
2021/05/13 11:13:48;;;;;;;5.08;1.30;;;;;;;18.74;50.67;100318.18;1764998;80;25733;-57
2021/05/13 11:16:48;;;;;;;11.00;1.90;;;;;;;19.13;49.81;100323.55;1762377;80;27430;-59
2021/05/13 11:19:25;;;;;;;11.33;1.45;;;;;;;19.96;48.31;100306.65;1695282;83;26355;-57
2021/05/13 11:22:03;;;;;;;5.78;1.15;;;;;;;20.63;45.96;100311.50;1662268;85;25962;-58
2021/05/13 11:24:37;;;;;;;7.60;1.22;;;;;;;21.37;44.32;100309.04;1688000;83;25562;-59
2021/05/13 11:27:07;;;;;;;2.50;1.30;;;;;;;21.24;43.65;100324.45;1687548;83;25699;-56
2021/05/13 11:29:50;;;;;;;5.62;1.82;;;;;;;20.92;44.04;100315.33;1675828;81;27387;-56
2021/05/13 11:32:19;;;;;;;12.80;1.00;;;;;;;20.70;44.76;100303.30;1693303;84;25760;-58
2021/05/13 11:34:48;;;;;;;7.45;1.10;;;;;;;20.59;44.98;100304.78;1694382;84;25730;-57
2021/05/13 11:37:31;;;;;;;4.03;1.60;;;;;;;20.44;44.91;100305.55;1691198;84;25681;-57
2021/05/13 11:40:17;;;;;;;5.25;1.00;;;;;;;20.02;45.59;100300.34;1688253;84;26081;-58
2021/05/13 11:42:44;;;;;;;4.30;1.02;;;;;;;19.75;46.20;100315.30;1682970;83;27426;-59